sensor_id;sensor_type;location;lat;lon;timestamp;temperature;humidity
292;DHT22;23311;48.776;9.162;2023-01-10T00:01:43;5.20;95.50
292;DHT22;23311;48.776;9.162;2023-01-10T00:04:11;5.30;95.50
292;DHT22;23311;48.776;9.162;2023-01-10T00:06:41;5.30;95.50
292;DHT22;23311;48.776;9.162;2023-01-10T00:09:09;5.30;95.50
292;DHT22;23311;48.776;9.162;2023-01-10T00:11:37;5.30;95.50
292;DHT22;23311;48.776;9.162;2023-01-10T00:14:25;5.40;95.50
292;DHT22;23311;48.776;9.162;2023-01-10T00:16:54;5.40;95.50
292;DHT22;23311;48.776;9.162;2023-01-10T00:19:22;5.40;95.50
292;DHT22;23311;48.776;9.162;2023-01-10T00:21:52;5.40;95.50
292;DHT22;23311;48.776;9.162;2023-01-10T00:24:20;5.40;95.50
292;DHT22;23311;48.776;9.162;2023-01-10T00:26:50;5.40;95.50
292;DHT22;23311;48.776;9.162;2023-01-10T00:29:19;5.50;95.50
292;DHT22;23311;48.776;9.162;2023-01-10T00:31:47;5.50;95.50
292;DHT22;23311;48.776;9.162;2023-01-10T00:34:16;5.50;95.50
292;DHT22;23311;48.776;9.162;2023-01-10T00:36:44;5.40;95.50
292;DHT22;23311;48.776;9.162;2023-01-10T00:39:15;5.50;95.50
292;DHT22;23311;48.776;9.162;2023-01-10T00:41:45;5.50;95.50
292;DHT22;23311;48.776;9.162;2023-01-10T00:44:31;5.40;95.50
292;DHT22;23311;48.776;9.162;2023-01-10T00:46:59;5.40;95.50
292;DHT22;23311;48.776;9.162;2023-01-10T00:49:27;5.40;95.50
292;DHT22;23311;48.776;9.162;2023-01-10T00:51:55;5.40;95.50
292;DHT22;23311;48.776;9.162;2023-01-10T00:54:26;5.40;95.50
292;DHT22;23311;48.776;9.162;2023-01-10T00:56:54;5.30;95.50
292;DHT22;23311;48.776;9.162;2023-01-10T00:59:23;5.40;95.50
292;DHT22;23311;48.776;9.162;2023-01-10T01:01:51;5.40;95.50
292;DHT22;23311;48.776;9.162;2023-01-10T01:04:19;5.40;95.50
292;DHT22;23311;48.776;9.162;2023-01-10T01:06:48;5.40;95.50
292;DHT22;23311;48.776;9.162;2023-01-10T01:09:16;5.40;95.50
292;DHT22;23311;48.776;9.162;2023-01-10T01:11:46;5.40;95.50
292;DHT22;23311;48.776;9.162;2023-01-10T01:14:15;5.40;95.50
292;DHT22;23311;48.776;9.162;2023-01-10T01:16:43;5.40;95.50
292;DHT22;23311;48.776;9.162;2023-01-10T01:19:11;5.40;95.50
292;DHT22;23311;48.776;9.162;2023-01-10T01:21:39;5.50;95.50
292;DHT22;23311;48.776;9.162;2023-01-10T01:24:08;5.50;95.50
292;DHT22;23311;48.776;9.162;2023-01-10T01:26:37;5.60;95.50
292;DHT22;23311;48.776;9.162;2023-01-10T01:29:07;5.60;95.50
292;DHT22;23311;48.776;9.162;2023-01-10T01:31:35;5.60;95.50
292;DHT22;23311;48.776;9.162;2023-01-10T01:34:03;5.60;95.50
292;DHT22;23311;48.776;9.162;2023-01-10T01:36:31;5.60;95.50
292;DHT22;23311;48.776;9.162;2023-01-10T01:38:59;5.60;95.50
292;DHT22;23311;48.776;9.162;2023-01-10T01:41:27;5.60;95.50
292;DHT22;23311;48.776;9.162;2023-01-10T01:44:15;5.60;95.50
292;DHT22;23311;48.776;9.162;2023-01-10T01:46:47;5.60;95.50
292;DHT22;23311;48.776;9.162;2023-01-10T01:49:19;5.60;95.50
292;DHT22;23311;48.776;9.162;2023-01-10T01:51:52;5.60;95.50
292;DHT22;23311;48.776;9.162;2023-01-10T01:54:22;5.60;95.50
292;DHT22;23311;48.776;9.162;2023-01-10T01:56:52;5.70;95.50
292;DHT22;23311;48.776;9.162;2023-01-10T01:59:25;5.60;95.50
292;DHT22;23311;48.776;9.162;2023-01-10T02:01:58;5.60;95.50
292;DHT22;23311;48.776;9.162;2023-01-10T02:04:30;5.50;95.50
292;DHT22;23311;48.776;9.162;2023-01-10T02:07:00;5.50;95.50
292;DHT22;23311;48.776;9.162;2023-01-10T02:09:32;5.40;95.50
292;DHT22;23311;48.776;9.162;2023-01-10T02:12:02;5.50;95.50
292;DHT22;23311;48.776;9.162;2023-01-10T02:14:32;5.40;95.50
292;DHT22;23311;48.776;9.162;2023-01-10T02:17:01;5.40;95.50
292;DHT22;23311;48.776;9.162;2023-01-10T02:19:42;5.40;95.50
292;DHT22;23311;48.776;9.162;2023-01-10T02:22:49;5.40;95.50
292;DHT22;23311;48.776;9.162;2023-01-10T02:26:02;5.30;95.50
292;DHT22;23311;48.776;9.162;2023-01-10T02:32:02;5.10;95.50
292;DHT22;23311;48.776;9.162;2023-01-10T02:34:42;5.00;95.50
292;DHT22;23311;48.776;9.162;2023-01-10T02:37:16;5.00;95.50
292;DHT22;23311;48.776;9.162;2023-01-10T02:39:52;5.00;95.50
292;DHT22;23311;48.776;9.162;2023-01-10T02:42:24;5.10;95.50
292;DHT22;23311;48.776;9.162;2023-01-10T02:44:59;5.10;95.50
292;DHT22;23311;48.776;9.162;2023-01-10T02:47:35;5.00;95.50
292;DHT22;23311;48.776;9.162;2023-01-10T02:50:24;5.00;95.50
292;DHT22;23311;48.776;9.162;2023-01-10T02:52:56;5.00;95.50
292;DHT22;23311;48.776;9.162;2023-01-10T02:55:30;5.00;95.50
292;DHT22;23311;48.776;9.162;2023-01-10T02:58:07;4.90;95.50
292;DHT22;23311;48.776;9.162;2023-01-10T03:00:44;4.90;95.50
292;DHT22;23311;48.776;9.162;2023-01-10T03:03:24;4.90;95.50
292;DHT22;23311;48.776;9.162;2023-01-10T03:06:07;4.80;95.50
292;DHT22;23311;48.776;9.162;2023-01-10T03:08:39;4.70;95.50
292;DHT22;23311;48.776;9.162;2023-01-10T03:11:10;4.70;95.50
292;DHT22;23311;48.776;9.162;2023-01-10T03:13:44;4.80;95.50
292;DHT22;23311;48.776;9.162;2023-01-10T03:16:17;4.80;95.50
292;DHT22;23311;48.776;9.162;2023-01-10T03:18:48;4.80;95.50
292;DHT22;23311;48.776;9.162;2023-01-10T03:21:21;4.80;95.50
292;DHT22;23311;48.776;9.162;2023-01-10T03:23:55;4.80;95.50
292;DHT22;23311;48.776;9.162;2023-01-10T03:26:28;4.70;95.50
292;DHT22;23311;48.776;9.162;2023-01-10T03:29:00;4.70;95.50
292;DHT22;23311;48.776;9.162;2023-01-10T03:31:36;4.80;95.50
292;DHT22;23311;48.776;9.162;2023-01-10T03:34:08;4.90;95.50
292;DHT22;23311;48.776;9.162;2023-01-10T03:36:42;4.80;95.50
292;DHT22;23311;48.776;9.162;2023-01-10T03:39:19;4.80;95.50
292;DHT22;23311;48.776;9.162;2023-01-10T03:41:53;4.80;95.50
292;DHT22;23311;48.776;9.162;2023-01-10T03:44:29;4.70;95.50
292;DHT22;23311;48.776;9.162;2023-01-10T03:47:14;4.70;95.50
292;DHT22;23311;48.776;9.162;2023-01-10T03:49:45;4.80;95.50
292;DHT22;23311;48.776;9.162;2023-01-10T03:52:16;4.80;95.50
292;DHT22;23311;48.776;9.162;2023-01-10T03:54:46;4.90;95.50
292;DHT22;23311;48.776;9.162;2023-01-10T03:57:16;4.90;95.50
292;DHT22;23311;48.776;9.162;2023-01-10T03:59:45;4.80;95.50
292;DHT22;23311;48.776;9.162;2023-01-10T04:02:13;4.70;95.50
292;DHT22;23311;48.776;9.162;2023-01-10T04:04:41;4.80;95.50
292;DHT22;23311;48.776;9.162;2023-01-10T04:07:10;4.70;95.50
292;DHT22;23311;48.776;9.162;2023-01-10T04:09:38;4.60;95.50
292;DHT22;23311;48.776;9.162;2023-01-10T04:12:06;4.50;95.50
292;DHT22;23311;48.776;9.162;2023-01-10T04:14:34;4.40;95.50
292;DHT22;23311;48.776;9.162;2023-01-10T04:17:02;4.40;95.50
292;DHT22;23311;48.776;9.162;2023-01-10T04:19:30;4.30;95.50
292;DHT22;23311;48.776;9.162;2023-01-10T04:21:58;4.30;95.50
292;DHT22;23311;48.776;9.162;2023-01-10T04:24:28;4.30;95.50
292;DHT22;23311;48.776;9.162;2023-01-10T04:26:56;4.30;95.50
292;DHT22;23311;48.776;9.162;2023-01-10T04:29:24;4.50;95.50
292;DHT22;23311;48.776;9.162;2023-01-10T04:31:53;4.50;95.50
292;DHT22;23311;48.776;9.162;2023-01-10T04:34:21;4.40;95.50
292;DHT22;23311;48.776;9.162;2023-01-10T04:36:49;4.30;95.50
292;DHT22;23311;48.776;9.162;2023-01-10T04:39:17;4.20;95.50
292;DHT22;23311;48.776;9.162;2023-01-10T04:41:46;4.10;95.50
292;DHT22;23311;48.776;9.162;2023-01-10T04:44:15;4.00;95.50
292;DHT22;23311;48.776;9.162;2023-01-10T04:46:43;4.00;95.50
292;DHT22;23311;48.776;9.162;2023-01-10T04:49:11;4.10;95.50
292;DHT22;23311;48.776;9.162;2023-01-10T04:51:39;4.10;95.50
292;DHT22;23311;48.776;9.162;2023-01-10T04:54:07;4.20;95.50
292;DHT22;23311;48.776;9.162;2023-01-10T04:56:35;4.20;95.50
292;DHT22;23311;48.776;9.162;2023-01-10T04:59:04;4.10;95.50
292;DHT22;23311;48.776;9.162;2023-01-10T05:01:34;4.20;95.50
292;DHT22;23311;48.776;9.162;2023-01-10T05:04:04;4.30;95.50
292;DHT22;23311;48.776;9.162;2023-01-10T05:06:33;4.40;95.50
292;DHT22;23311;48.776;9.162;2023-01-10T05:09:01;4.30;95.50
292;DHT22;23311;48.776;9.162;2023-01-10T05:11:29;4.40;95.50
292;DHT22;23311;48.776;9.162;2023-01-10T05:13:57;4.50;95.50
292;DHT22;23311;48.776;9.162;2023-01-10T05:16:27;4.60;95.50
292;DHT22;23311;48.776;9.162;2023-01-10T05:18:56;4.70;95.50
292;DHT22;23311;48.776;9.162;2023-01-10T05:21:24;4.70;95.50
292;DHT22;23311;48.776;9.162;2023-01-10T05:23:52;4.70;95.50
292;DHT22;23311;48.776;9.162;2023-01-10T05:26:22;4.90;95.50
292;DHT22;23311;48.776;9.162;2023-01-10T05:28:50;5.00;95.50
292;DHT22;23311;48.776;9.162;2023-01-10T05:31:19;5.00;95.50
292;DHT22;23311;48.776;9.162;2023-01-10T05:33:49;5.00;95.50
292;DHT22;23311;48.776;9.162;2023-01-10T05:36:18;5.00;95.50
292;DHT22;23311;48.776;9.162;2023-01-10T05:38:46;5.00;95.50
292;DHT22;23311;48.776;9.162;2023-01-10T05:41:14;5.10;95.50
292;DHT22;23311;48.776;9.162;2023-01-10T05:43:42;5.10;95.50
292;DHT22;23311;48.776;9.162;2023-01-10T05:46:10;5.10;95.50
292;DHT22;23311;48.776;9.162;2023-01-10T05:48:39;5.10;95.50
292;DHT22;23311;48.776;9.162;2023-01-10T05:51:09;5.20;95.50
292;DHT22;23311;48.776;9.162;2023-01-10T05:53:37;5.20;95.50
292;DHT22;23311;48.776;9.162;2023-01-10T05:56:06;5.10;95.50
292;DHT22;23311;48.776;9.162;2023-01-10T05:58:34;5.30;95.50
292;DHT22;23311;48.776;9.162;2023-01-10T06:01:02;5.30;95.50
292;DHT22;23311;48.776;9.162;2023-01-10T06:03:30;5.30;95.50
292;DHT22;23311;48.776;9.162;2023-01-10T06:05:58;5.20;95.50
292;DHT22;23311;48.776;9.162;2023-01-10T06:08:27;5.20;95.50
292;DHT22;23311;48.776;9.162;2023-01-10T06:10:56;5.20;95.50
292;DHT22;23311;48.776;9.162;2023-01-10T06:13:24;5.20;95.50
292;DHT22;23311;48.776;9.162;2023-01-10T06:15:52;5.20;95.50
292;DHT22;23311;48.776;9.162;2023-01-10T06:18:20;5.20;95.50
292;DHT22;23311;48.776;9.162;2023-01-10T06:20:48;5.10;95.50
292;DHT22;23311;48.776;9.162;2023-01-10T06:23:16;5.20;95.50
292;DHT22;23311;48.776;9.162;2023-01-10T06:25:45;5.20;95.50
292;DHT22;23311;48.776;9.162;2023-01-10T06:28:14;5.20;95.50
292;DHT22;23311;48.776;9.162;2023-01-10T06:30:42;5.20;95.50
292;DHT22;23311;48.776;9.162;2023-01-10T06:33:10;5.10;95.50
292;DHT22;23311;48.776;9.162;2023-01-10T06:35:38;5.10;95.50
292;DHT22;23311;48.776;9.162;2023-01-10T06:38:06;5.10;95.50
292;DHT22;23311;48.776;9.162;2023-01-10T06:40:34;5.00;95.50
292;DHT22;23311;48.776;9.162;2023-01-10T06:43:04;4.90;95.50
292;DHT22;23311;48.776;9.162;2023-01-10T06:45:32;5.00;95.50
292;DHT22;23311;48.776;9.162;2023-01-10T06:48:00;5.00;95.50
292;DHT22;23311;48.776;9.162;2023-01-10T06:50:28;5.10;95.50
292;DHT22;23311;48.776;9.162;2023-01-10T06:52:58;5.00;95.50
292;DHT22;23311;48.776;9.162;2023-01-10T06:55:27;5.00;95.50
292;DHT22;23311;48.776;9.162;2023-01-10T06:57:55;4.90;95.50
292;DHT22;23311;48.776;9.162;2023-01-10T07:00:26;5.00;95.50
292;DHT22;23311;48.776;9.162;2023-01-10T07:02:57;5.10;95.50
292;DHT22;23311;48.776;9.162;2023-01-10T07:05:25;5.10;95.50
292;DHT22;23311;48.776;9.162;2023-01-10T07:07:53;5.20;95.50
292;DHT22;23311;48.776;9.162;2023-01-10T07:10:21;5.20;95.50
292;DHT22;23311;48.776;9.162;2023-01-10T07:12:49;5.20;95.50
292;DHT22;23311;48.776;9.162;2023-01-10T07:15:17;5.20;95.50
292;DHT22;23311;48.776;9.162;2023-01-10T07:17:46;5.20;95.50
292;DHT22;23311;48.776;9.162;2023-01-10T07:20:14;5.30;95.50
292;DHT22;23311;48.776;9.162;2023-01-10T07:22:42;5.30;95.50
292;DHT22;23311;48.776;9.162;2023-01-10T07:25:10;5.30;95.50
292;DHT22;23311;48.776;9.162;2023-01-10T07:27:38;5.40;95.50
292;DHT22;23311;48.776;9.162;2023-01-10T07:30:10;5.40;95.50
292;DHT22;23311;48.776;9.162;2023-01-10T07:32:38;5.40;95.50
292;DHT22;23311;48.776;9.162;2023-01-10T07:35:08;5.30;95.50
292;DHT22;23311;48.776;9.162;2023-01-10T07:37:36;5.30;95.50
292;DHT22;23311;48.776;9.162;2023-01-10T07:40:05;5.30;95.50
292;DHT22;23311;48.776;9.162;2023-01-10T07:42:33;5.30;95.50
292;DHT22;23311;48.776;9.162;2023-01-10T07:45:01;5.30;95.50
292;DHT22;23311;48.776;9.162;2023-01-10T07:47:29;5.40;95.50
292;DHT22;23311;48.776;9.162;2023-01-10T07:49:57;5.30;95.50
292;DHT22;23311;48.776;9.162;2023-01-10T07:52:27;5.40;95.50
292;DHT22;23311;48.776;9.162;2023-01-10T07:54:55;5.40;95.50
292;DHT22;23311;48.776;9.162;2023-01-10T07:57:23;5.40;95.50
292;DHT22;23311;48.776;9.162;2023-01-10T07:59:51;5.40;95.50
292;DHT22;23311;48.776;9.162;2023-01-10T08:02:19;5.40;95.50
292;DHT22;23311;48.776;9.162;2023-01-10T08:04:47;5.50;95.50
292;DHT22;23311;48.776;9.162;2023-01-10T08:07:15;5.50;95.50
292;DHT22;23311;48.776;9.162;2023-01-10T08:09:44;5.50;95.50
292;DHT22;23311;48.776;9.162;2023-01-10T08:12:12;5.50;95.50
292;DHT22;23311;48.776;9.162;2023-01-10T08:14:40;5.50;95.50
292;DHT22;23311;48.776;9.162;2023-01-10T08:17:08;5.60;95.50
292;DHT22;23311;48.776;9.162;2023-01-10T08:19:37;5.60;95.50
292;DHT22;23311;48.776;9.162;2023-01-10T08:22:04;5.60;95.50
292;DHT22;23311;48.776;9.162;2023-01-10T08:24:33;5.60;95.50
292;DHT22;23311;48.776;9.162;2023-01-10T08:27:02;5.60;95.50
292;DHT22;23311;48.776;9.162;2023-01-10T08:29:30;5.70;95.50
292;DHT22;23311;48.776;9.162;2023-01-10T08:31:59;5.80;95.50
292;DHT22;23311;48.776;9.162;2023-01-10T08:34:27;5.80;95.50
292;DHT22;23311;48.776;9.162;2023-01-10T08:36:55;5.80;95.50
292;DHT22;23311;48.776;9.162;2023-01-10T08:39:22;5.80;95.50
292;DHT22;23311;48.776;9.162;2023-01-10T08:41:52;5.80;95.50
292;DHT22;23311;48.776;9.162;2023-01-10T08:44:21;5.90;95.50
292;DHT22;23311;48.776;9.162;2023-01-10T08:46:50;6.00;95.50
292;DHT22;23311;48.776;9.162;2023-01-10T08:49:18;6.10;95.50
292;DHT22;23311;48.776;9.162;2023-01-10T08:51:46;6.10;95.50
292;DHT22;23311;48.776;9.162;2023-01-10T08:54:14;6.20;95.50
292;DHT22;23311;48.776;9.162;2023-01-10T08:56:42;6.00;95.50
292;DHT22;23311;48.776;9.162;2023-01-10T08:59:10;5.90;95.50
292;DHT22;23311;48.776;9.162;2023-01-10T09:01:40;5.90;95.50
292;DHT22;23311;48.776;9.162;2023-01-10T09:04:08;6.00;95.50
292;DHT22;23311;48.776;9.162;2023-01-10T09:06:36;6.10;95.50
292;DHT22;23311;48.776;9.162;2023-01-10T09:09:04;6.20;95.50
292;DHT22;23311;48.776;9.162;2023-01-10T09:11:32;6.10;95.50
292;DHT22;23311;48.776;9.162;2023-01-10T09:14:00;6.20;95.50
292;DHT22;23311;48.776;9.162;2023-01-10T09:16:29;6.20;95.50
292;DHT22;23311;48.776;9.162;2023-01-10T09:18:59;6.20;95.50
292;DHT22;23311;48.776;9.162;2023-01-10T09:21:27;6.10;95.50
292;DHT22;23311;48.776;9.162;2023-01-10T09:23:55;6.10;95.50
292;DHT22;23311;48.776;9.162;2023-01-10T09:26:23;6.10;95.50
292;DHT22;23311;48.776;9.162;2023-01-10T09:28:51;6.10;95.50
292;DHT22;23311;48.776;9.162;2023-01-10T09:31:19;6.10;95.50
292;DHT22;23311;48.776;9.162;2023-01-10T09:33:47;6.00;95.50
292;DHT22;23311;48.776;9.162;2023-01-10T09:36:16;5.90;95.50
292;DHT22;23311;48.776;9.162;2023-01-10T09:38:44;5.70;95.50
292;DHT22;23311;48.776;9.162;2023-01-10T09:41:33;5.70;95.50
292;DHT22;23311;48.776;9.162;2023-01-10T09:44:06;5.70;95.50
292;DHT22;23311;48.776;9.162;2023-01-10T09:46:45;5.70;95.50
292;DHT22;23311;48.776;9.162;2023-01-10T09:49:23;5.90;95.50
292;DHT22;23311;48.776;9.162;2023-01-10T09:51:55;6.00;95.50
292;DHT22;23311;48.776;9.162;2023-01-10T09:54:27;6.10;95.50
292;DHT22;23311;48.776;9.162;2023-01-10T09:56:57;6.10;95.50
292;DHT22;23311;48.776;9.162;2023-01-10T09:59:31;6.10;95.50
292;DHT22;23311;48.776;9.162;2023-01-10T10:02:06;5.90;95.50
292;DHT22;23311;48.776;9.162;2023-01-10T10:04:41;5.70;95.50
292;DHT22;23311;48.776;9.162;2023-01-10T10:07:14;5.70;95.50
292;DHT22;23311;48.776;9.162;2023-01-10T10:09:43;5.90;95.50
292;DHT22;23311;48.776;9.162;2023-01-10T10:12:25;6.00;95.50
292;DHT22;23311;48.776;9.162;2023-01-10T10:15:04;6.10;95.50
292;DHT22;23311;48.776;9.162;2023-01-10T10:17:40;6.30;95.50
292;DHT22;23311;48.776;9.162;2023-01-10T10:20:22;6.50;95.50
292;DHT22;23311;48.776;9.162;2023-01-10T10:23:07;6.60;95.50
292;DHT22;23311;48.776;9.162;2023-01-10T10:25:54;6.70;95.50
292;DHT22;23311;48.776;9.162;2023-01-10T10:28:50;6.70;95.50
292;DHT22;23311;48.776;9.162;2023-01-10T10:31:28;6.70;95.50
292;DHT22;23311;48.776;9.162;2023-01-10T10:34:03;6.60;95.50
292;DHT22;23311;48.776;9.162;2023-01-10T10:36:37;6.60;95.50
292;DHT22;23311;48.776;9.162;2023-01-10T10:39:12;6.60;95.50
292;DHT22;23311;48.776;9.162;2023-01-10T10:41:44;6.50;95.50
292;DHT22;23311;48.776;9.162;2023-01-10T10:44:29;6.40;95.50
292;DHT22;23311;48.776;9.162;2023-01-10T10:47:01;6.50;95.50
292;DHT22;23311;48.776;9.162;2023-01-10T10:49:36;6.50;95.50
292;DHT22;23311;48.776;9.162;2023-01-10T10:52:13;6.60;95.50
292;DHT22;23311;48.776;9.162;2023-01-10T10:54:45;6.60;95.50
292;DHT22;23311;48.776;9.162;2023-01-10T10:57:13;6.80;95.50
292;DHT22;23311;48.776;9.162;2023-01-10T10:59:45;6.90;95.50
292;DHT22;23311;48.776;9.162;2023-01-10T11:02:23;7.00;95.50
292;DHT22;23311;48.776;9.162;2023-01-10T11:04:54;7.00;95.50
292;DHT22;23311;48.776;9.162;2023-01-10T11:07:24;7.10;95.50
292;DHT22;23311;48.776;9.162;2023-01-10T11:09:57;7.10;95.50
292;DHT22;23311;48.776;9.162;2023-01-10T11:12:40;7.00;95.50
292;DHT22;23311;48.776;9.162;2023-01-10T11:15:34;6.90;95.50
292;DHT22;23311;48.776;9.162;2023-01-10T11:18:04;7.00;95.50
292;DHT22;23311;48.776;9.162;2023-01-10T11:20:33;6.80;95.50
292;DHT22;23311;48.776;9.162;2023-01-10T11:23:02;6.60;95.50
292;DHT22;23311;48.776;9.162;2023-01-10T11:25:32;6.60;95.50
292;DHT22;23311;48.776;9.162;2023-01-10T11:28:00;6.80;95.50
292;DHT22;23311;48.776;9.162;2023-01-10T11:30:30;6.90;95.50
292;DHT22;23311;48.776;9.162;2023-01-10T11:33:00;7.20;95.50
292;DHT22;23311;48.776;9.162;2023-01-10T11:35:31;7.40;95.50
292;DHT22;23311;48.776;9.162;2023-01-10T11:38:00;7.70;95.50
292;DHT22;23311;48.776;9.162;2023-01-10T11:40:29;7.80;95.50
292;DHT22;23311;48.776;9.162;2023-01-10T11:43:00;7.60;95.50
292;DHT22;23311;48.776;9.162;2023-01-10T11:45:52;7.40;95.50
292;DHT22;23311;48.776;9.162;2023-01-10T11:48:23;7.40;95.50
292;DHT22;23311;48.776;9.162;2023-01-10T11:51:20;7.30;95.50
292;DHT22;23311;48.776;9.162;2023-01-10T11:53:56;7.30;95.50
292;DHT22;23311;48.776;9.162;2023-01-10T11:56:27;7.50;95.50
292;DHT22;23311;48.776;9.162;2023-01-10T11:59:05;7.90;95.50
292;DHT22;23311;48.776;9.162;2023-01-10T12:01:39;8.10;95.50
292;DHT22;23311;48.776;9.162;2023-01-10T12:04:13;8.20;95.50
292;DHT22;23311;48.776;9.162;2023-01-10T12:06:43;8.30;95.50
292;DHT22;23311;48.776;9.162;2023-01-10T12:09:36;8.20;95.50
292;DHT22;23311;48.776;9.162;2023-01-10T12:12:15;8.10;95.50
292;DHT22;23311;48.776;9.162;2023-01-10T12:14:45;8.20;95.50
292;DHT22;23311;48.776;9.162;2023-01-10T12:17:20;8.30;95.50
292;DHT22;23311;48.776;9.162;2023-01-10T12:19:49;8.10;95.50
292;DHT22;23311;48.776;9.162;2023-01-10T12:22:21;7.90;95.50
292;DHT22;23311;48.776;9.162;2023-01-10T12:24:53;7.60;95.50
292;DHT22;23311;48.776;9.162;2023-01-10T12:27:23;7.30;95.50
292;DHT22;23311;48.776;9.162;2023-01-10T12:29:59;7.20;95.50
292;DHT22;23311;48.776;9.162;2023-01-10T12:32:33;7.10;95.50
292;DHT22;23311;48.776;9.162;2023-01-10T12:35:06;7.20;95.50
292;DHT22;23311;48.776;9.162;2023-01-10T12:37:41;7.20;95.50
292;DHT22;23311;48.776;9.162;2023-01-10T12:40:16;7.30;95.50
292;DHT22;23311;48.776;9.162;2023-01-10T12:42:51;7.40;95.50
292;DHT22;23311;48.776;9.162;2023-01-10T12:45:42;7.60;95.50
292;DHT22;23311;48.776;9.162;2023-01-10T12:48:18;7.90;95.50
292;DHT22;23311;48.776;9.162;2023-01-10T12:50:51;8.10;95.50
292;DHT22;23311;48.776;9.162;2023-01-10T12:53:29;8.10;94.50
292;DHT22;23311;48.776;9.162;2023-01-10T12:56:01;8.00;93.90
292;DHT22;23311;48.776;9.162;2023-01-10T12:58:37;7.90;94.60
292;DHT22;23311;48.776;9.162;2023-01-10T13:01:13;7.70;94.40
292;DHT22;23311;48.776;9.162;2023-01-10T13:03:44;7.60;95.10
292;DHT22;23311;48.776;9.162;2023-01-10T13:06:20;7.60;95.10
292;DHT22;23311;48.776;9.162;2023-01-10T13:08:50;7.50;94.50
292;DHT22;23311;48.776;9.162;2023-01-10T13:11:21;7.50;94.40
292;DHT22;23311;48.776;9.162;2023-01-10T13:13:55;7.70;94.50
292;DHT22;23311;48.776;9.162;2023-01-10T13:16:34;7.90;94.10
292;DHT22;23311;48.776;9.162;2023-01-10T13:19:17;8.00;93.50
292;DHT22;23311;48.776;9.162;2023-01-10T13:21:48;8.10;93.50
292;DHT22;23311;48.776;9.162;2023-01-10T13:24:20;8.20;93.50
292;DHT22;23311;48.776;9.162;2023-01-10T13:26:51;8.20;93.10
292;DHT22;23311;48.776;9.162;2023-01-10T13:29:22;8.10;93.10
292;DHT22;23311;48.776;9.162;2023-01-10T13:31:52;7.90;93.50
292;DHT22;23311;48.776;9.162;2023-01-10T13:34:26;7.70;93.50
292;DHT22;23311;48.776;9.162;2023-01-10T13:37:00;7.70;93.80
292;DHT22;23311;48.776;9.162;2023-01-10T13:39:31;7.60;94.00
292;DHT22;23311;48.776;9.162;2023-01-10T13:42:21;7.60;93.50
292;DHT22;23311;48.776;9.162;2023-01-10T13:45:22;7.70;94.10
292;DHT22;23311;48.776;9.162;2023-01-10T13:48:23;8.00;93.00
292;DHT22;23311;48.776;9.162;2023-01-10T13:51:05;8.00;92.40
292;DHT22;23311;48.776;9.162;2023-01-10T13:53:52;7.90;92.10
292;DHT22;23311;48.776;9.162;2023-01-10T13:56:29;7.80;92.70
292;DHT22;23311;48.776;9.162;2023-01-10T13:58:58;7.80;93.90
292;DHT22;23311;48.776;9.162;2023-01-10T14:01:48;7.80;93.80
292;DHT22;23311;48.776;9.162;2023-01-10T14:04:37;7.70;94.00
292;DHT22;23311;48.776;9.162;2023-01-10T14:07:14;7.70;94.00
292;DHT22;23311;48.776;9.162;2023-01-10T14:09:45;7.70;93.50
292;DHT22;23311;48.776;9.162;2023-01-10T14:12:26;7.70;93.90
292;DHT22;23311;48.776;9.162;2023-01-10T14:14:57;7.90;93.20
292;DHT22;23311;48.776;9.162;2023-01-10T14:17:27;8.00;93.70
292;DHT22;23311;48.776;9.162;2023-01-10T14:20:13;8.10;92.60
292;DHT22;23311;48.776;9.162;2023-01-10T14:22:56;8.20;90.90
292;DHT22;23311;48.776;9.162;2023-01-10T14:25:25;8.00;90.30
292;DHT22;23311;48.776;9.162;2023-01-10T14:27:55;8.00;90.70
292;DHT22;23311;48.776;9.162;2023-01-10T14:30:27;7.90;90.80
292;DHT22;23311;48.776;9.162;2023-01-10T14:32:59;7.70;91.20
292;DHT22;23311;48.776;9.162;2023-01-10T14:35:34;7.50;91.40
292;DHT22;23311;48.776;9.162;2023-01-10T14:38:04;7.40;92.20
292;DHT22;23311;48.776;9.162;2023-01-10T14:40:36;7.30;92.80
292;DHT22;23311;48.776;9.162;2023-01-10T14:43:10;7.20;93.20
292;DHT22;23311;48.776;9.162;2023-01-10T14:45:46;7.10;93.60
292;DHT22;23311;48.776;9.162;2023-01-10T14:48:24;7.00;94.10
292;DHT22;23311;48.776;9.162;2023-01-10T14:51:17;6.90;94.70
292;DHT22;23311;48.776;9.162;2023-01-10T14:53:53;6.80;95.00
292;DHT22;23311;48.776;9.162;2023-01-10T14:56:24;6.80;95.40
292;DHT22;23311;48.776;9.162;2023-01-10T14:58:52;6.70;95.50
292;DHT22;23311;48.776;9.162;2023-01-10T15:01:23;6.60;95.50
292;DHT22;23311;48.776;9.162;2023-01-10T15:03:52;6.60;95.50
292;DHT22;23311;48.776;9.162;2023-01-10T15:06:22;6.60;95.50
292;DHT22;23311;48.776;9.162;2023-01-10T15:08:56;6.60;95.50
292;DHT22;23311;48.776;9.162;2023-01-10T15:11:25;6.60;95.50
292;DHT22;23311;48.776;9.162;2023-01-10T15:13:56;6.60;95.50
292;DHT22;23311;48.776;9.162;2023-01-10T15:16:26;6.50;95.50
292;DHT22;23311;48.776;9.162;2023-01-10T15:18:55;6.40;95.50
292;DHT22;23311;48.776;9.162;2023-01-10T15:21:26;6.40;95.50
292;DHT22;23311;48.776;9.162;2023-01-10T15:23:54;6.40;95.50
292;DHT22;23311;48.776;9.162;2023-01-10T15:26:27;6.30;95.50
292;DHT22;23311;48.776;9.162;2023-01-10T15:29:05;6.30;95.50
292;DHT22;23311;48.776;9.162;2023-01-10T15:31:35;6.20;95.50
292;DHT22;23311;48.776;9.162;2023-01-10T15:34:07;6.10;95.50
292;DHT22;23311;48.776;9.162;2023-01-10T15:36:42;6.20;95.50
292;DHT22;23311;48.776;9.162;2023-01-10T15:39:20;6.20;95.50
292;DHT22;23311;48.776;9.162;2023-01-10T15:41:50;6.10;95.50
292;DHT22;23311;48.776;9.162;2023-01-10T15:44:37;6.10;95.50
292;DHT22;23311;48.776;9.162;2023-01-10T15:47:25;6.00;95.50
292;DHT22;23311;48.776;9.162;2023-01-10T15:49:54;6.00;95.50
292;DHT22;23311;48.776;9.162;2023-01-10T15:52:23;6.00;95.50
292;DHT22;23311;48.776;9.162;2023-01-10T15:54:51;6.00;95.50
292;DHT22;23311;48.776;9.162;2023-01-10T15:57:26;6.00;95.50
292;DHT22;23311;48.776;9.162;2023-01-10T15:59:56;5.90;95.50
292;DHT22;23311;48.776;9.162;2023-01-10T16:02:28;5.90;95.50
292;DHT22;23311;48.776;9.162;2023-01-10T16:05:04;5.80;95.50
292;DHT22;23311;48.776;9.162;2023-01-10T16:07:56;5.80;95.50
292;DHT22;23311;48.776;9.162;2023-01-10T16:10:25;5.70;95.50
292;DHT22;23311;48.776;9.162;2023-01-10T16:13:07;5.70;95.50
292;DHT22;23311;48.776;9.162;2023-01-10T16:15:54;5.60;95.50
292;DHT22;23311;48.776;9.162;2023-01-10T16:18:23;5.60;95.50
292;DHT22;23311;48.776;9.162;2023-01-10T16:20:53;5.60;95.50
292;DHT22;23311;48.776;9.162;2023-01-10T16:23:30;5.60;95.50
292;DHT22;23311;48.776;9.162;2023-01-10T16:26:00;5.50;95.50
292;DHT22;23311;48.776;9.162;2023-01-10T16:28:29;5.30;95.50
292;DHT22;23311;48.776;9.162;2023-01-10T16:31:01;5.30;95.50
292;DHT22;23311;48.776;9.162;2023-01-10T16:33:32;5.20;95.50
292;DHT22;23311;48.776;9.162;2023-01-10T16:36:03;5.20;95.50
292;DHT22;23311;48.776;9.162;2023-01-10T16:38:33;5.10;95.50
292;DHT22;23311;48.776;9.162;2023-01-10T16:41:02;5.10;95.50
292;DHT22;23311;48.776;9.162;2023-01-10T16:43:51;5.10;95.50
292;DHT22;23311;48.776;9.162;2023-01-10T16:46:18;5.10;95.50
292;DHT22;23311;48.776;9.162;2023-01-10T16:48:46;5.10;95.50
292;DHT22;23311;48.776;9.162;2023-01-10T16:51:18;5.20;95.50
292;DHT22;23311;48.776;9.162;2023-01-10T16:53:47;5.20;95.50